createdAt,value
2022-09-23T00:00:49.152Z,70.25
2022-09-23T00:03:21.871Z,70.10
2022-09-23T00:06:00.506Z,70.60
2022-09-23T00:08:32.069Z,70.46
2022-09-23T00:11:09.205Z,70.68
2022-09-23T00:13:41.910Z,70.45
2022-09-23T00:16:15.579Z,70.05
2022-09-23T00:18:47.094Z,69.66
2022-09-23T00:21:19.372Z,69.91
2022-09-23T00:23:51.949Z,69.79
2022-09-23T00:26:24.578Z,69.59
2022-09-23T00:28:56.245Z,69.96
2022-09-23T00:31:28.650Z,69.73
2022-09-23T00:34:01.911Z,69.93
2022-09-23T00:36:33.874Z,70.34
2022-09-23T00:39:05.436Z,70.83
2022-09-23T00:41:37.063Z,70.87
2022-09-23T00:44:38.587Z,70.89
2022-09-23T00:47:16.537Z,71.25
2022-09-23T00:49:51.206Z,71.33
2022-09-23T00:52:24.728Z,71.18
2022-09-23T00:54:57.688Z,71.27
2022-09-23T00:57:30.908Z,71.22
2022-09-23T01:00:02.623Z,71.21
2022-09-23T01:02:34.172Z,70.64
2022-09-23T01:05:08.805Z,71.21
2022-09-23T01:07:40.128Z,71.06
2022-09-23T01:10:15.890Z,71.47
2022-09-23T01:13:00.375Z,71.48
2022-09-23T01:15:40.782Z,71.21
2022-09-23T01:18:23.955Z,71.44
2022-09-23T01:21:14.436Z,71.49
2022-09-23T01:24:33.022Z,71.08
2022-09-23T01:27:14.157Z,71.27
2022-09-23T01:30:18.991Z,71.64
2022-09-23T01:33:09.349Z,70.89
2022-09-23T01:35:52.732Z,70.37
2022-09-23T01:38:34.297Z,70.37
2022-09-23T01:41:14.020Z,70.49
2022-09-23T01:43:54.756Z,70.83
2022-09-23T01:46:34.463Z,71.14
2022-09-23T01:49:10.322Z,71.10
2022-09-23T01:51:46.668Z,71.65
2022-09-23T01:54:25.632Z,72.14
2022-09-23T01:57:01.569Z,72.24
2022-09-23T01:59:37.835Z,71.97
2022-09-23T02:02:15.533Z,72.38
2022-09-23T02:04:54.437Z,71.85
2022-09-23T02:07:30.748Z,71.22
2022-09-23T02:10:09.013Z,70.81
2022-09-23T02:12:42.981Z,70.63
2022-09-23T02:15:17.014Z,71.18
2022-09-23T02:17:53.430Z,71.16
2022-09-23T02:20:31.801Z,71.33
2022-09-23T02:23:08.252Z,71.91
2022-09-23T02:25:49.880Z,71.82
2022-09-23T02:28:28.506Z,71.70
2022-09-23T02:31:09.666Z,71.54
2022-09-23T02:33:45.725Z,71.91
2022-09-23T02:36:24.232Z,71.49
2022-09-23T02:38:59.624Z,71.63
2022-09-23T02:41:37.060Z,71.60
2022-09-23T02:44:12.588Z,71.69
2022-09-23T02:46:44.563Z,71.52
2022-09-23T02:49:19.365Z,71.70
2022-09-23T02:51:49.108Z,71.37
2022-09-23T02:54:24.247Z,71.03
2022-09-23T02:56:57.554Z,71.68
2022-09-23T02:59:28.809Z,71.24
2022-09-23T03:02:17.276Z,71.73
2022-09-23T03:04:59.310Z,71.49
2022-09-23T03:07:38.149Z,71.22
2022-09-23T03:10:16.682Z,71.78
2022-09-23T03:12:58.303Z,71.28
2022-09-23T03:15:39.442Z,71.17
2022-09-23T03:18:15.884Z,71.07
2022-09-23T03:20:51.500Z,71.21
2022-09-23T03:23:26.268Z,71.22
2022-09-23T03:25:57.213Z,70.96
2022-09-23T03:28:30.183Z,70.67
2022-09-23T03:31:06.985Z,70.81
2022-09-23T03:33:45.725Z,70.31
2022-09-23T03:36:43.523Z,71.33
2022-09-23T03:39:20.278Z,71.50
2022-09-23T03:41:54.507Z,72.13
2022-09-23T03:44:29.409Z,72.97
2022-09-23T03:47:04.755Z,73.27
2022-09-23T03:49:39.978Z,73.91
2022-09-23T03:52:11.765Z,73.98
2022-09-23T03:54:43.186Z,74.18
2022-09-23T03:57:15.289Z,73.86
2022-09-23T03:59:46.687Z,73.48
2022-09-23T04:02:18.600Z,73.16
2022-09-23T04:04:50.576Z,73.17
2022-09-23T04:07:21.978Z,73.26
2022-09-23T04:09:53.787Z,73.61
2022-09-23T04:12:25.282Z,73.86
2022-09-23T04:14:56.522Z,74.51
2022-09-23T04:17:28.307Z,74.48
2022-09-23T04:19:59.824Z,74.63
2022-09-23T04:22:31.644Z,74.13
2022-09-23T04:25:03.858Z,74.09
2022-09-23T04:27:37.773Z,74.33
2022-09-23T04:30:11.567Z,74.29
2022-09-23T04:32:42.848Z,74.52
2022-09-23T04:35:14.157Z,74.62
2022-09-23T04:37:45.341Z,75.10
2022-09-23T04:40:16.601Z,75.43
2022-09-23T04:42:47.756Z,75.31
2022-09-23T04:45:19.416Z,75.19
2022-09-23T04:47:51.118Z,75.12
2022-09-23T04:50:22.424Z,74.97
2022-09-23T04:52:54.282Z,75.17
2022-09-23T04:55:25.789Z,75.24
2022-09-23T04:57:57.277Z,74.82
2022-09-23T05:00:28.927Z,75.19
2022-09-23T05:03:00.464Z,74.64
2022-09-23T05:05:32.155Z,75.30
2022-09-23T05:08:03.584Z,74.88
2022-09-23T05:10:34.828Z,74.95
2022-09-23T05:13:06.402Z,75.11
2022-09-23T05:15:37.884Z,74.60
2022-09-23T05:18:09.533Z,74.96
2022-09-23T05:20:40.695Z,75.19
2022-09-23T05:23:11.852Z,74.34
2022-09-23T05:25:45.474Z,74.50
2022-09-23T05:28:19.760Z,75.01
2022-09-23T05:30:51.284Z,75.26
2022-09-23T05:33:22.613Z,74.93
2022-09-23T05:35:53.984Z,74.81
2022-09-23T05:38:25.438Z,74.74
2022-09-23T05:41:00.477Z,74.88
2022-09-23T05:43:32.413Z,74.82
2022-09-23T05:46:08.601Z,75.22
2022-09-23T05:48:40.875Z,74.87
2022-09-23T05:51:16.501Z,74.41
2022-09-23T05:53:48.467Z,74.57
2022-09-23T05:56:22.292Z,74.86
2022-09-23T05:58:56.043Z,74.24
2022-09-23T06:01:29.235Z,74.38
2022-09-23T06:04:01.869Z,74.41
2022-09-23T06:06:34.794Z,73.95
2022-09-23T06:09:07.286Z,74.60
2022-09-23T06:11:39.507Z,74.40
2022-09-23T06:14:12.882Z,74.73
2022-09-23T06:16:44.469Z,74.79
2022-09-23T06:19:16.646Z,74.51
2022-09-23T06:21:50.086Z,74.09
2022-09-23T06:24:24.955Z,73.79
2022-09-23T06:27:01.345Z,73.87
2022-09-23T06:29:33.476Z,73.88
2022-09-23T06:32:08.529Z,74.25
2022-09-23T06:34:50.928Z,73.80
2022-09-23T06:37:23.570Z,73.58
2022-09-23T06:39:55.172Z,73.54
2022-09-23T06:42:26.880Z,73.74
2022-09-23T06:44:58.468Z,74.02
2022-09-23T06:47:30.728Z,74.21
2022-09-23T06:50:02.043Z,74.01
2022-09-23T06:52:33.458Z,73.73
2022-09-23T06:55:05.483Z,73.35
2022-09-23T06:57:36.729Z,73.67
2022-09-23T07:00:09.648Z,74.04
2022-09-23T07:02:43.505Z,73.79
2022-09-23T07:05:16.559Z,73.69
2022-09-23T07:07:48.457Z,74.13
2022-09-23T07:10:20.000Z,74.70
2022-09-23T07:12:51.892Z,75.01
2022-09-23T07:15:23.147Z,74.87
2022-09-23T07:17:54.616Z,74.05
2022-09-23T07:20:26.184Z,74.21
2022-09-23T07:22:57.439Z,73.85
2022-09-23T07:25:29.530Z,73.77
2022-09-23T07:28:01.422Z,73.92
2022-09-23T07:30:33.441Z,73.79
2022-09-23T07:33:18.607Z,73.81
2022-09-23T07:35:56.163Z,73.70
2022-09-23T07:38:30.508Z,72.98
2022-09-23T07:41:06.224Z,72.81
2022-09-23T07:43:38.522Z,71.79
2022-09-23T07:46:13.387Z,71.94
2022-09-23T07:48:45.546Z,71.71
2022-09-23T07:51:21.337Z,71.73
2022-09-23T07:53:53.854Z,71.09
2022-09-23T07:56:29.076Z,70.80
2022-09-23T07:59:04.365Z,70.22
2022-09-23T08:01:38.072Z,70.31
2022-09-23T08:04:13.637Z,70.10
2022-09-23T08:06:47.282Z,70.23
2022-09-23T08:09:20.539Z,70.42
2022-09-23T08:11:52.732Z,69.83
2022-09-23T08:14:24.183Z,69.82
2022-09-23T08:16:55.638Z,69.99
2022-09-23T08:19:27.697Z,69.34
2022-09-23T08:21:59.268Z,69.02
2022-09-23T08:24:32.840Z,68.31
2022-09-23T08:27:05.100Z,67.56
2022-09-23T08:29:36.599Z,67.27
2022-09-23T08:32:08.394Z,66.98
2022-09-23T08:34:40.305Z,66.33
2022-09-23T08:37:13.886Z,66.41
2022-09-23T08:39:45.368Z,65.58
2022-09-23T08:42:24.587Z,65.63
2022-09-23T08:44:59.661Z,66.24
2022-09-23T08:47:37.312Z,66.70
2022-09-23T08:50:14.954Z,66.60
2022-09-23T08:52:53.084Z,66.59
2022-09-23T08:55:34.570Z,65.57
2022-09-23T08:58:25.937Z,65.09
2022-09-23T09:01:10.155Z,65.10
2022-09-23T09:03:46.586Z,64.00
2022-09-23T09:06:22.598Z,63.89
2022-09-23T09:09:01.091Z,63.81
2022-09-23T09:11:38.267Z,63.87
2022-09-23T09:14:19.177Z,63.82
2022-09-23T09:17:04.086Z,62.95
2022-09-23T09:20:06.207Z,62.52
2022-09-23T09:22:58.072Z,62.69
2022-09-23T09:25:47.063Z,62.08
2022-09-23T09:28:23.445Z,61.71
2022-09-23T09:30:58.086Z,60.49
2022-09-23T09:33:30.776Z,61.21
2022-09-23T09:36:10.454Z,61.59
2022-09-23T09:38:42.377Z,61.02
2022-09-23T09:41:21.728Z,60.87
2022-09-23T09:44:01.057Z,61.14
2022-09-23T09:46:53.379Z,60.32
2022-09-23T09:49:38.111Z,60.21
2022-09-23T09:52:24.384Z,60.04
2022-09-23T09:55:03.292Z,59.50
2022-09-23T09:57:40.146Z,58.81
2022-09-23T10:00:39.985Z,57.33
2022-09-23T10:03:27.964Z,57.83
2022-09-23T10:06:00.298Z,57.24
2022-09-23T10:08:35.250Z,56.24
2022-09-23T10:11:15.448Z,56.17
2022-09-23T10:14:05.800Z,55.71
2022-09-23T10:16:38.241Z,55.47
2022-09-23T10:19:16.273Z,55.77
2022-09-23T10:21:57.206Z,55.82
2022-09-23T10:24:31.321Z,55.30
2022-09-23T10:27:08.075Z,54.79
2022-09-23T10:29:50.013Z,53.59
2022-09-23T10:32:32.975Z,53.29
2022-09-23T10:35:16.428Z,52.88
2022-09-23T10:37:50.654Z,52.72
2022-09-23T10:40:45.974Z,53.25
2022-09-23T10:43:41.489Z,53.84
2022-09-23T10:46:41.741Z,52.28
2022-09-23T10:49:36.942Z,50.47
2022-09-23T10:52:27.981Z,51.50
2022-09-23T10:55:10.674Z,52.14
2022-09-23T10:57:58.853Z,52.60
2022-09-23T11:00:41.187Z,52.56
2022-09-23T11:03:43.534Z,51.70
2022-09-23T11:06:26.254Z,51.19
2022-09-23T11:09:16.268Z,51.96
2022-09-23T11:12:02.668Z,51.38
2022-09-23T11:14:47.367Z,51.30
2022-09-23T11:17:32.552Z,47.83
2022-09-23T11:20:28.519Z,48.72
2022-09-23T11:23:21.872Z,49.23
2022-09-23T11:26:01.799Z,48.44
2022-09-23T11:28:48.821Z,48.54
2022-09-23T11:31:34.010Z,48.96
2022-09-23T11:34:25.439Z,49.31
2022-09-23T11:37:04.899Z,49.09
2022-09-23T11:39:44.096Z,48.84
2022-09-23T11:42:21.658Z,49.06
2022-09-23T11:44:58.024Z,48.53
2022-09-23T11:47:38.971Z,47.18
2022-09-23T11:50:22.916Z,47.53
2022-09-23T11:53:00.468Z,47.49
2022-09-23T11:55:37.814Z,48.34
2022-09-23T11:58:23.762Z,48.61
2022-09-23T12:01:02.373Z,48.81
2022-09-23T12:03:45.812Z,48.99
2022-09-23T12:06:23.179Z,49.54
2022-09-23T12:08:59.293Z,49.56
2022-09-23T12:11:39.221Z,50.42
2022-09-23T12:14:19.664Z,50.65
2022-09-23T12:17:05.261Z,50.96
2022-09-23T12:20:06.969Z,51.72
2022-09-23T12:22:52.854Z,51.55
2022-09-23T12:25:46.883Z,51.54
2022-09-23T12:28:24.866Z,51.26
2022-09-23T12:30:58.599Z,51.14
2022-09-23T12:33:32.634Z,50.64
2022-09-23T12:36:09.722Z,50.33
2022-09-23T12:38:48.840Z,49.31
2022-09-23T12:41:29.870Z,49.11
2022-09-23T12:44:16.317Z,48.75
2022-09-23T12:46:48.839Z,48.06
2022-09-23T12:49:39.468Z,48.15
2022-09-23T12:52:27.402Z,48.18
2022-09-23T12:55:22.326Z,48.59
2022-09-23T12:57:53.626Z,48.88
2022-09-23T13:00:34.191Z,49.24
2022-09-23T13:03:22.987Z,49.24
2022-09-23T13:06:19.753Z,49.20
2022-09-23T13:08:53.691Z,49.57
2022-09-23T13:11:30.078Z,49.93
2022-09-23T13:14:05.581Z,50.33
2022-09-23T13:16:44.050Z,50.49
2022-09-23T13:19:46.592Z,50.53
2022-09-23T13:23:01.648Z,49.40
2022-09-23T13:25:36.805Z,48.93
2022-09-23T13:28:23.238Z,48.86
2022-09-23T13:30:54.783Z,48.35
2022-09-23T13:33:32.485Z,48.33
2022-09-23T13:36:11.127Z,48.07
2022-09-23T13:38:42.597Z,48.22
2022-09-23T13:41:19.337Z,48.31
2022-09-23T13:43:53.359Z,48.66
2022-09-23T13:46:27.858Z,48.27
2022-09-23T13:48:59.440Z,48.59
2022-09-23T13:51:35.055Z,48.47
2022-09-23T13:54:07.726Z,48.57
2022-09-23T13:56:49.769Z,48.38
2022-09-23T13:59:28.765Z,47.81
2022-09-23T14:02:13.570Z,47.28
2022-09-23T14:04:45.111Z,47.39
2022-09-23T14:07:19.248Z,47.35
2022-09-23T14:09:53.347Z,46.99
2022-09-23T14:12:25.078Z,47.20
2022-09-23T14:14:57.386Z,46.80
2022-09-23T14:17:30.650Z,46.53
2022-09-23T14:20:02.304Z,45.84
2022-09-23T14:22:33.838Z,45.19
2022-09-23T14:25:05.486Z,44.85
2022-09-23T14:27:38.101Z,44.81
2022-09-23T14:30:15.447Z,44.77
2022-09-23T14:32:48.193Z,44.33
2022-09-23T14:35:24.419Z,44.59
2022-09-23T14:38:14.905Z,45.04
2022-09-23T14:41:15.654Z,45.09
2022-09-23T14:43:56.212Z,44.32
2022-09-23T14:46:29.395Z,43.29
2022-09-23T14:49:17.571Z,43.72
2022-09-23T14:51:53.500Z,44.07
2022-09-23T14:54:36.220Z,42.84
2022-09-23T14:57:27.563Z,42.15
2022-09-23T15:00:01.118Z,41.85
2022-09-23T15:02:35.565Z,41.12
2022-09-23T15:05:17.986Z,40.86
2022-09-23T15:07:53.086Z,40.89
2022-09-23T15:10:28.208Z,40.61
2022-09-23T15:13:09.150Z,40.58
2022-09-23T15:15:42.313Z,40.91
2022-09-23T15:18:21.421Z,41.36
2022-09-23T15:20:55.606Z,41.78
2022-09-23T15:23:45.495Z,41.44
2022-09-23T15:26:18.387Z,41.14
2022-09-23T15:28:54.328Z,41.58
2022-09-23T15:31:26.860Z,42.09
2022-09-23T15:33:58.527Z,42.08
2022-09-23T15:36:30.735Z,42.16
2022-09-23T15:39:06.141Z,42.28
2022-09-23T15:41:37.458Z,42.18
2022-09-23T15:44:15.534Z,42.64
2022-09-23T15:46:50.229Z,43.08
2022-09-23T15:49:29.516Z,43.50
2022-09-23T15:52:06.221Z,43.72
2022-09-23T15:54:38.150Z,44.04
2022-09-23T15:57:09.717Z,44.16
2022-09-23T15:59:41.305Z,44.31
2022-09-23T16:02:24.987Z,44.23
2022-09-23T16:04:57.534Z,44.49
2022-09-23T16:07:29.058Z,44.56
2022-09-23T16:10:00.691Z,44.66
2022-09-23T16:12:32.481Z,44.84
2022-09-23T16:15:03.567Z,45.58
2022-09-23T16:17:35.649Z,46.07
2022-09-23T16:20:09.277Z,46.32
2022-09-23T16:22:40.886Z,46.89
2022-09-23T16:25:22.416Z,47.15
2022-09-23T16:27:55.626Z,47.26
2022-09-23T16:30:28.286Z,47.84
2022-09-23T16:33:01.120Z,48.17
2022-09-23T16:35:34.970Z,48.66
2022-09-23T16:38:11.814Z,48.75
2022-09-23T16:40:47.160Z,49.34
2022-09-23T16:43:19.945Z,49.38
2022-09-23T16:45:51.691Z,49.63
2022-09-23T16:48:23.177Z,50.10
2022-09-23T16:50:54.941Z,50.23
2022-09-23T16:53:26.629Z,50.44
2022-09-23T16:55:58.671Z,50.81
2022-09-23T16:58:30.328Z,50.51
2022-09-23T17:01:19.317Z,50.96
2022-09-23T17:03:51.217Z,51.27
2022-09-23T17:06:27.716Z,51.34
2022-09-23T17:08:59.176Z,50.91
2022-09-23T17:11:34.092Z,50.99
2022-09-23T17:14:05.598Z,51.66
2022-09-23T17:16:37.595Z,52.04
2022-09-23T17:19:12.313Z,52.15
2022-09-23T17:21:42.108Z,52.02
2022-09-23T17:24:13.854Z,51.84
2022-09-23T17:26:50.694Z,52.36
2022-09-23T17:29:27.002Z,52.87
2022-09-23T17:31:58.345Z,53.29
2022-09-23T17:34:30.130Z,54.03
2022-09-23T17:37:02.725Z,54.49
2022-09-23T17:39:33.862Z,54.76
2022-09-23T17:42:06.245Z,55.04
2022-09-23T17:44:37.966Z,55.49
2022-09-23T17:47:09.344Z,55.85
2022-09-23T17:49:40.924Z,56.24
2022-09-23T17:52:12.436Z,55.88
2022-09-23T17:54:43.845Z,56.81
2022-09-23T17:57:15.412Z,56.92
2022-09-23T17:59:46.677Z,57.42
2022-09-23T18:02:20.047Z,58.03
2022-09-23T18:04:51.607Z,58.27
2022-09-23T18:07:22.996Z,58.69
2022-09-23T18:09:54.476Z,58.88
2022-09-23T18:12:26.004Z,59.55
2022-09-23T18:14:57.340Z,59.97
2022-09-23T18:17:28.898Z,60.14
2022-09-23T18:20:00.401Z,60.61
2022-09-23T18:22:31.725Z,61.39
2022-09-23T18:25:17.419Z,61.29
2022-09-23T18:27:56.100Z,61.14
2022-09-23T18:30:27.722Z,62.23
2022-09-23T18:32:59.929Z,62.20
2022-09-23T18:35:31.890Z,62.01
2022-09-23T18:38:03.243Z,61.76
2022-09-23T18:40:35.400Z,61.48
2022-09-23T18:43:06.946Z,61.32
2022-09-23T18:45:38.415Z,61.58
2022-09-23T18:48:28.933Z,61.81
2022-09-23T18:51:00.283Z,61.60
2022-09-23T18:53:33.192Z,61.77
2022-09-23T18:56:10.205Z,61.96
2022-09-23T18:58:41.633Z,61.96
2022-09-23T19:01:13.396Z,61.72
2022-09-23T19:03:44.757Z,61.91
2022-09-23T19:06:21.232Z,61.63
2022-09-23T19:08:55.540Z,61.50
2022-09-23T19:11:26.944Z,61.77
2022-09-23T19:14:00.739Z,62.12
2022-09-23T19:16:35.128Z,62.49
2022-09-23T19:19:08.301Z,62.48
2022-09-23T19:21:40.003Z,62.06
2022-09-23T19:24:16.270Z,61.98
2022-09-23T19:26:47.916Z,62.15
2022-09-23T19:29:22.233Z,62.34
2022-09-23T19:31:54.023Z,62.64
2022-09-23T19:34:29.370Z,62.45
2022-09-23T19:37:04.930Z,62.26
2022-09-23T19:39:37.733Z,62.33
2022-09-23T19:42:10.198Z,62.24
2022-09-23T19:44:41.367Z,62.45
2022-09-23T19:47:15.927Z,62.21
2022-09-23T19:49:47.826Z,62.39
2022-09-23T19:52:20.593Z,62.66
2022-09-23T19:54:52.047Z,62.31
2022-09-23T19:57:23.360Z,62.35
2022-09-23T19:59:54.956Z,62.16
2022-09-23T20:02:26.451Z,62.07
2022-09-23T20:04:58.040Z,62.55
2022-09-23T20:07:29.480Z,62.69
2022-09-23T20:10:01.251Z,62.56
2022-09-23T20:12:35.866Z,62.73
2022-09-23T20:15:08.619Z,62.52
2022-09-23T20:17:41.166Z,62.32
2022-09-23T20:20:16.105Z,62.51
2022-09-23T20:22:48.325Z,62.59
2022-09-23T20:25:19.985Z,63.04
2022-09-23T20:27:53.834Z,63.31
2022-09-23T20:30:26.127Z,63.11
2022-09-23T20:32:58.256Z,62.96
2022-09-23T20:35:35.229Z,63.13
2022-09-23T20:38:12.357Z,63.09
2022-09-23T20:40:44.327Z,62.99
2022-09-23T20:43:22.453Z,62.80
2022-09-23T20:45:59.989Z,63.06
2022-09-23T20:48:32.064Z,63.02
2022-09-23T20:51:12.648Z,62.89
2022-09-23T20:53:46.008Z,62.75
2022-09-23T20:56:19.094Z,62.53
2022-09-23T20:58:51.034Z,62.75
2022-09-23T21:01:23.376Z,63.02
2022-09-23T21:03:56.327Z,62.88
2022-09-23T21:06:27.490Z,62.69
2022-09-23T21:08:59.591Z,63.06
2022-09-23T21:11:32.279Z,63.33
2022-09-23T21:14:04.000Z,63.46
2022-09-23T21:16:35.652Z,63.59
2022-09-23T21:19:08.957Z,64.32
2022-09-23T21:21:40.066Z,64.17
2022-09-23T21:24:40.044Z,64.52
2022-09-23T21:27:04.188Z,64.43
2022-09-23T21:29:35.978Z,64.41
2022-09-23T21:32:07.804Z,64.34
2022-09-23T21:34:38.906Z,64.72
2022-09-23T21:37:10.682Z,65.00
2022-09-23T21:40:01.920Z,65.10
2022-09-23T21:42:33.095Z,65.16
2022-09-23T21:45:05.356Z,65.53
2022-09-23T21:47:36.476Z,65.38
2022-09-23T21:50:11.184Z,65.54
2022-09-23T21:52:41.156Z,65.55
2022-09-23T21:55:13.481Z,65.31
2022-09-23T21:57:46.366Z,65.33
2022-09-23T22:00:19.582Z,65.25
2022-09-23T22:02:51.126Z,65.83
2022-09-23T22:05:22.618Z,65.67
2022-09-23T22:07:54.473Z,66.25
2022-09-23T22:10:25.915Z,65.63
2022-09-23T22:12:57.292Z,65.28
2022-09-23T22:15:28.816Z,65.60
2022-09-23T22:18:00.482Z,65.67
2022-09-23T22:20:33.306Z,66.13
2022-09-23T22:23:04.564Z,65.82
2022-09-23T22:25:35.713Z,65.52
2022-09-23T22:28:24.395Z,65.58
2022-09-23T22:31:12.835Z,65.39
2022-09-23T22:33:44.366Z,65.33
2022-09-23T22:36:15.608Z,65.66
2022-09-23T22:38:46.638Z,65.97
2022-09-23T22:41:21.019Z,65.89
2022-09-23T22:43:54.101Z,66.08
2022-09-23T22:46:26.407Z,66.04
2022-09-23T22:48:59.505Z,65.92
2022-09-23T22:51:30.993Z,65.67
2022-09-23T22:54:02.324Z,65.62
2022-09-23T22:56:33.680Z,65.93
2022-09-23T22:59:06.557Z,65.62
2022-09-23T23:01:38.433Z,65.65
2022-09-23T23:04:12.600Z,66.02
2022-09-23T23:06:43.871Z,65.95
2022-09-23T23:09:18.015Z,65.71
2022-09-23T23:11:49.146Z,66.03
2022-09-23T23:14:21.696Z,66.18
2022-09-23T23:16:53.824Z,66.92
2022-09-23T23:19:26.333Z,66.97
2022-09-23T23:21:57.890Z,66.92
2022-09-23T23:24:30.411Z,67.05
2022-09-23T23:27:01.852Z,66.88
2022-09-23T23:29:32.972Z,66.42
2022-09-23T23:32:05.315Z,66.66
2022-09-23T23:34:36.473Z,67.24
2022-09-23T23:37:07.749Z,67.80
2022-09-23T23:39:38.937Z,67.93
2022-09-23T23:42:10.065Z,67.93
2022-09-23T23:44:41.196Z,67.93
2022-09-23T23:47:13.112Z,67.79
2022-09-23T23:49:44.375Z,67.73
2022-09-23T23:52:16.190Z,67.84
2022-09-23T23:54:47.481Z,67.79
2022-09-23T23:57:19.044Z,68.59
2022-09-23T23:59:50.361Z,68.50
